createdAt,value
2018-05-01T00:00:36.737Z,4.00
2018-05-01T00:01:36.714Z,4.00
2018-05-01T00:02:36.701Z,4.00
2018-05-01T00:03:36.671Z,4.00
2018-05-01T00:04:36.648Z,4.00
2018-05-01T00:05:36.627Z,4.00
2018-05-01T00:06:36.606Z,4.00
2018-05-01T00:07:36.582Z,4.00
2018-05-01T00:08:36.559Z,4.00
2018-05-01T00:09:36.538Z,4.00
2018-05-01T00:10:36.516Z,4.00
2018-05-01T00:11:36.496Z,4.00
2018-05-01T00:12:36.470Z,0.00
2018-05-01T00:13:36.448Z,4.00
2018-05-01T00:14:36.427Z,4.00
2018-05-01T00:15:36.404Z,4.00
2018-05-01T00:16:36.382Z,4.00
2018-05-01T00:17:36.359Z,4.00
2018-05-01T00:18:36.339Z,4.00
2018-05-01T00:19:36.315Z,4.00
2018-05-01T00:20:36.294Z,4.00
2018-05-01T00:21:36.270Z,4.00
2018-05-01T00:22:36.248Z,4.00
2018-05-01T00:23:36.226Z,4.00
2018-05-01T00:24:36.203Z,4.00
2018-05-01T00:25:36.180Z,4.00
2018-05-01T00:26:36.160Z,4.00
2018-05-01T00:27:36.137Z,4.00
2018-05-01T00:28:36.116Z,4.00
2018-05-01T00:29:36.092Z,4.00
2018-05-01T00:30:36.070Z,4.00
2018-05-01T00:31:36.048Z,4.00
2018-05-01T00:32:36.025Z,4.00
2018-05-01T00:33:36.003Z,4.00
2018-05-01T00:34:35.979Z,4.00
2018-05-01T00:35:35.960Z,4.00
2018-05-01T00:36:35.935Z,4.00
2018-05-01T00:37:35.914Z,4.00
2018-05-01T00:38:36.642Z,4.00
2018-05-01T00:39:35.870Z,4.00
2018-05-01T00:40:35.846Z,4.00
2018-05-01T00:41:35.825Z,4.00
2018-05-01T00:42:35.801Z,4.00
2018-05-01T00:43:35.780Z,4.00
2018-05-01T00:44:35.756Z,4.00
2018-05-01T00:45:35.734Z,4.00
2018-05-01T00:46:35.714Z,4.00
2018-05-01T00:47:35.690Z,4.00
2018-05-01T00:48:35.678Z,4.00
2018-05-01T00:49:37.146Z,4.00
2018-05-01T00:50:35.622Z,4.00
2018-05-01T00:51:35.678Z,4.00
2018-05-01T00:52:35.575Z,4.00
2018-05-01T00:53:35.553Z,4.00
2018-05-01T00:54:35.532Z,4.00
2018-05-01T00:55:35.509Z,4.00
2018-05-01T00:56:35.486Z,4.00
2018-05-01T00:57:35.464Z,4.00
2018-05-01T00:58:35.446Z,4.00
2018-05-01T00:59:35.418Z,4.00
2018-05-01T01:00:35.396Z,4.00
2018-05-01T01:01:35.373Z,4.00
2018-05-01T01:02:35.351Z,4.00
2018-05-01T01:03:35.408Z,4.00
2018-05-01T01:04:35.308Z,4.00
2018-05-01T01:05:35.383Z,4.00
2018-05-01T01:06:36.012Z,4.00
2018-05-01T01:07:35.238Z,4.00
2018-05-01T01:08:35.215Z,4.00
2018-05-01T01:09:35.193Z,4.00
2018-05-01T01:10:35.172Z,4.00
2018-05-01T01:11:35.148Z,4.00
2018-05-01T01:12:35.125Z,4.00
2018-05-01T01:13:35.102Z,4.00
2018-05-01T01:14:35.081Z,4.00
2018-05-01T01:15:35.057Z,4.00
2018-05-01T01:16:35.035Z,4.00
2018-05-01T01:17:35.011Z,4.00
2018-05-01T01:18:34.989Z,4.00
2018-05-01T01:19:34.967Z,4.00
2018-05-01T01:20:34.944Z,4.00
2018-05-01T01:21:34.921Z,4.00
2018-05-01T01:22:34.898Z,4.00
2018-05-01T01:23:34.878Z,4.00
2018-05-01T01:24:34.852Z,4.00
2018-05-01T01:25:34.830Z,4.00
2018-05-01T01:26:34.808Z,4.00
2018-05-01T01:27:34.784Z,4.00
2018-05-01T01:28:34.771Z,4.00
2018-05-01T01:29:34.743Z,4.00
2018-05-01T01:30:34.721Z,4.00
2018-05-01T01:31:34.694Z,4.00
2018-05-01T01:32:34.671Z,4.00
2018-05-01T01:33:34.648Z,4.00
2018-05-01T01:34:34.625Z,4.00
2018-05-01T01:35:34.604Z,4.00
2018-05-01T01:36:34.580Z,4.00
2018-05-01T01:37:34.558Z,4.00
2018-05-01T01:38:34.535Z,4.00
2018-05-01T01:39:34.513Z,4.00
2018-05-01T01:40:34.489Z,4.00
2018-05-01T01:41:34.467Z,4.00
2018-05-01T01:42:34.445Z,4.00
2018-05-01T01:43:34.421Z,4.00
2018-05-01T01:44:34.401Z,4.00
2018-05-01T01:45:34.376Z,4.00
2018-05-01T01:46:34.353Z,4.00
2018-05-01T01:47:34.330Z,4.00
2018-05-01T01:48:34.307Z,4.00
2018-05-01T01:49:34.288Z,4.00
2018-05-01T01:50:34.263Z,4.00
2018-05-01T01:51:34.239Z,4.00
2018-05-01T01:52:34.216Z,4.00
2018-05-01T01:53:34.194Z,4.00
2018-05-01T01:54:34.171Z,4.00
2018-05-01T01:55:34.148Z,4.00
2018-05-01T01:56:34.128Z,4.00
2018-05-01T01:57:34.104Z,4.00
2018-05-01T01:58:34.081Z,4.00
2018-05-01T01:59:34.058Z,4.00
2018-05-01T02:00:34.035Z,4.00
2018-05-01T02:01:34.012Z,4.00
2018-05-01T02:02:33.989Z,4.00
2018-05-01T02:03:33.967Z,4.00
2018-05-01T02:04:33.943Z,4.00
2018-05-01T02:05:33.919Z,4.00
2018-05-01T02:06:33.898Z,4.00
2018-05-01T02:07:33.876Z,4.00
2018-05-01T02:08:33.852Z,4.00
2018-05-01T02:09:33.829Z,4.00
2018-05-01T02:10:33.807Z,4.00
2018-05-01T02:11:33.786Z,4.00
2018-05-01T02:12:33.760Z,4.00
2018-05-01T02:13:33.736Z,4.00
2018-05-01T02:14:33.719Z,4.00
2018-05-01T02:15:33.691Z,4.00
2018-05-01T02:16:33.668Z,4.00
2018-05-01T02:17:33.648Z,4.00
2018-05-01T02:18:33.623Z,4.00
2018-05-01T02:19:33.600Z,4.00
2018-05-01T02:20:35.082Z,4.00
2018-05-01T02:21:33.556Z,4.00
2018-05-01T02:22:33.531Z,4.00
2018-05-01T02:23:33.509Z,4.00
2018-05-01T02:24:33.485Z,4.00
2018-05-01T02:25:33.463Z,4.00
2018-05-01T02:26:33.438Z,4.00
2018-05-01T02:27:33.417Z,4.00
2018-05-01T02:28:33.391Z,4.00
2018-05-01T02:29:33.368Z,4.00
2018-05-01T02:30:33.347Z,4.00
2018-05-01T02:31:33.324Z,4.00
2018-05-01T02:32:33.301Z,4.00
2018-05-01T02:33:33.276Z,4.00
2018-05-01T02:34:33.256Z,4.00
2018-05-01T02:35:33.232Z,4.00
2018-05-01T02:36:33.209Z,4.00
2018-05-01T02:37:33.186Z,4.00
2018-05-01T02:38:33.162Z,4.00
2018-05-01T02:39:33.138Z,4.00
2018-05-01T02:40:33.116Z,4.00
2018-05-01T02:41:33.091Z,4.00
2018-05-01T02:42:33.069Z,4.00
2018-05-01T02:43:33.046Z,4.00
2018-05-01T02:44:33.022Z,4.00
2018-05-01T02:45:33.000Z,4.00
2018-05-01T02:46:32.977Z,4.00
2018-05-01T02:47:32.958Z,4.00
2018-05-01T02:48:32.935Z,4.00
2018-05-01T02:49:32.907Z,4.00
2018-05-01T02:50:32.884Z,4.00
2018-05-01T02:51:32.861Z,4.00
2018-05-01T02:52:32.837Z,4.00
2018-05-01T02:53:32.815Z,4.00
2018-05-01T02:54:32.794Z,4.00
2018-05-01T02:55:32.769Z,4.00
2018-05-01T02:56:32.748Z,4.00
2018-05-01T02:57:32.756Z,4.00
2018-05-01T02:58:32.701Z,4.00
2018-05-01T02:59:32.675Z,4.00
2018-05-01T03:00:32.651Z,4.00
2018-05-01T03:01:32.631Z,4.00
2018-05-01T03:02:32.607Z,4.00
2018-05-01T03:03:32.582Z,4.00
2018-05-01T03:04:32.558Z,4.00
2018-05-01T03:05:32.536Z,4.00
2018-05-01T03:06:32.513Z,4.00
2018-05-01T03:07:32.491Z,4.00
2018-05-01T03:08:32.467Z,4.00
2018-05-01T03:09:32.444Z,4.00
2018-05-01T03:10:32.420Z,4.00
2018-05-01T03:11:32.398Z,4.00
2018-05-01T03:12:32.375Z,4.00
2018-05-01T03:13:32.355Z,4.00
2018-05-01T03:14:32.329Z,4.00
2018-05-01T03:15:32.307Z,4.00
2018-05-01T03:16:32.283Z,4.00
2018-05-01T03:17:32.261Z,4.00
2018-05-01T03:18:32.235Z,4.00
2018-05-01T03:19:32.213Z,4.00
2018-05-01T03:20:32.188Z,4.00
2018-05-01T03:21:32.166Z,4.00
2018-05-01T03:22:32.144Z,4.00
2018-05-01T03:23:32.121Z,4.00
2018-05-01T03:24:32.097Z,4.00
2018-05-01T03:25:32.073Z,4.00
2018-05-01T03:26:32.051Z,4.00
2018-05-01T03:27:32.029Z,4.00
2018-05-01T03:28:32.004Z,4.00
2018-05-01T03:29:31.981Z,4.00
2018-05-01T03:30:31.959Z,4.00
2018-05-01T03:31:31.935Z,4.00
2018-05-01T03:32:31.916Z,4.00
2018-05-01T03:33:31.891Z,4.00
2018-05-01T03:34:31.866Z,4.00
2018-05-01T03:35:31.843Z,4.00
2018-05-01T03:36:31.821Z,4.00
2018-05-01T03:37:31.798Z,4.00
2018-05-01T03:38:31.777Z,4.00
2018-05-01T03:39:31.753Z,4.00
2018-05-01T03:40:31.731Z,4.00
2018-05-01T03:41:31.705Z,0.00
2018-05-01T03:42:31.683Z,0.00
2018-05-01T03:43:31.660Z,0.00
2018-05-01T03:44:31.636Z,0.00
2018-05-01T03:45:31.614Z,0.00
2018-05-01T03:46:31.590Z,4.00
2018-05-01T03:47:31.567Z,4.00
2018-05-01T03:48:31.544Z,4.00
2018-05-01T03:49:31.520Z,4.00
2018-05-01T03:50:31.498Z,4.00
2018-05-01T03:51:31.476Z,4.00
2018-05-01T03:52:31.452Z,8.00
2018-05-01T03:53:31.428Z,4.00
2018-05-01T03:54:31.405Z,8.00
2018-05-01T03:55:31.383Z,8.00
2018-05-01T03:56:31.360Z,8.00
2018-05-01T03:57:31.337Z,8.00
2018-05-01T03:58:31.314Z,8.00
2018-05-01T03:59:31.291Z,12.00
2018-05-01T04:00:31.270Z,12.00
2018-05-01T04:01:31.246Z,12.00
2018-05-01T04:02:31.221Z,16.00
2018-05-01T04:03:31.199Z,16.00
2018-05-01T04:04:31.177Z,16.00
2018-05-01T04:05:31.155Z,20.00
2018-05-01T04:06:31.130Z,20.00
2018-05-01T04:07:31.107Z,24.00
2018-05-01T04:08:31.083Z,24.00
2018-05-01T04:09:31.060Z,24.00
2018-05-01T04:10:31.041Z,28.00
2018-05-01T04:11:31.013Z,32.00
2018-05-01T04:12:30.990Z,40.00
2018-05-01T04:13:30.968Z,40.00
2018-05-01T04:14:30.945Z,48.00
2018-05-01T04:15:30.922Z,48.00
2018-05-01T04:16:30.897Z,56.00
2018-05-01T04:17:30.874Z,56.00
2018-05-01T04:18:30.854Z,56.00
2018-05-01T04:19:30.829Z,64.00
2018-05-01T04:20:30.809Z,72.00
2018-05-01T04:21:30.782Z,84.00
2018-05-01T04:22:30.759Z,92.00
2018-05-01T04:23:30.737Z,108.00
2018-05-01T04:24:30.712Z,124.00
2018-05-01T04:25:30.691Z,144.00
2018-05-01T04:26:30.667Z,168.00
2018-05-01T04:27:30.644Z,188.00
2018-05-01T04:28:30.624Z,208.00
2018-05-01T04:29:30.598Z,220.00
2018-05-01T04:30:30.575Z,232.00
2018-05-01T04:31:30.550Z,244.00
2018-05-01T04:32:30.529Z,248.00
2018-05-01T04:33:30.504Z,256.00
2018-05-01T04:34:30.484Z,268.00
2018-05-01T04:35:30.458Z,276.00
2018-05-01T04:36:30.434Z,280.00
2018-05-01T04:37:30.412Z,284.00
2018-05-01T04:38:30.388Z,288.00
2018-05-01T04:39:30.368Z,288.00
2018-05-01T04:40:30.342Z,292.00
2018-05-01T04:41:30.319Z,296.00
2018-05-01T04:42:30.295Z,312.00
2018-05-01T04:43:30.273Z,324.00
2018-05-01T04:44:30.248Z,340.00
2018-05-01T04:45:30.226Z,352.00
2018-05-01T04:46:30.204Z,352.00
2018-05-01T04:47:30.180Z,348.00
2018-05-01T04:48:30.156Z,348.00
2018-05-01T04:49:30.134Z,348.00
2018-05-01T04:50:30.110Z,352.00
2018-05-01T04:51:30.088Z,360.00
2018-05-01T04:52:30.063Z,376.00
2018-05-01T04:53:30.041Z,400.00
2018-05-01T04:54:30.017Z,420.00
2018-05-01T04:55:29.994Z,444.00
2018-05-01T04:56:31.471Z,460.00
2018-05-01T04:57:29.946Z,480.00
2018-05-01T04:58:29.992Z,492.00
2018-05-01T04:59:29.900Z,504.00
2018-05-01T05:00:29.877Z,524.00
2018-05-01T05:01:29.853Z,544.00
2018-05-01T05:02:30.581Z,572.00
2018-05-01T05:03:29.806Z,604.00
2018-05-01T05:04:29.784Z,628.00
2018-05-01T05:05:29.761Z,648.00
2018-05-01T05:06:29.736Z,664.00
2018-05-01T05:07:29.717Z,680.00
2018-05-01T05:08:29.690Z,692.00
2018-05-01T05:09:29.762Z,700.00
2018-05-01T05:10:29.644Z,712.00
2018-05-01T05:11:29.619Z,724.00
2018-05-01T05:12:29.595Z,732.00
2018-05-01T05:13:29.576Z,752.00
2018-05-01T05:14:29.550Z,780.00
2018-05-01T05:15:29.527Z,812.00
2018-05-01T05:16:29.503Z,848.00
2018-05-01T05:17:29.479Z,892.00
2018-05-01T05:18:29.455Z,928.00
2018-05-01T05:19:29.432Z,956.00
2018-05-01T05:20:29.412Z,976.00
2018-05-01T05:21:29.386Z,976.00
2018-05-01T05:22:29.363Z,960.00
2018-05-01T05:23:29.340Z,948.00
2018-05-01T05:24:29.315Z,948.00
2018-05-01T05:25:29.293Z,960.00
2018-05-01T05:26:29.273Z,984.00
2018-05-01T05:27:29.246Z,1008.00
2018-05-01T05:28:29.222Z,1020.00
2018-05-01T05:29:29.199Z,1020.00
2018-05-01T05:30:29.175Z,1020.00
2018-05-01T05:31:29.153Z,1024.00
2018-05-01T05:32:29.131Z,1056.00
2018-05-01T05:33:29.106Z,1096.00
2018-05-01T05:34:29.084Z,1132.00
2018-05-01T05:35:29.061Z,1148.00
2018-05-01T05:36:29.036Z,1152.00
2018-05-01T05:37:29.012Z,1164.00
2018-05-01T05:38:28.989Z,1196.00
2018-05-01T05:39:28.967Z,1240.00
2018-05-01T05:40:28.943Z,1260.00
2018-05-01T05:41:28.920Z,1268.00
2018-05-01T05:42:28.896Z,1276.00
2018-05-01T05:43:28.873Z,1292.00
2018-05-01T05:44:28.854Z,1292.00
2018-05-01T05:45:28.826Z,1304.00
2018-05-01T05:46:28.807Z,1320.00
2018-05-01T05:47:28.780Z,1348.00
2018-05-01T05:48:28.755Z,1368.00
2018-05-01T05:49:28.733Z,1372.00
2018-05-01T05:50:30.211Z,1380.00
2018-05-01T05:51:28.690Z,1388.00
2018-05-01T05:52:28.663Z,1392.00
2018-05-01T05:53:28.639Z,1404.00
2018-05-01T05:54:28.649Z,1420.00
2018-05-01T05:55:28.597Z,1444.00
2018-05-01T05:56:28.569Z,1472.00
2018-05-01T05:57:28.546Z,1480.00
2018-05-01T05:58:28.523Z,1460.00
2018-05-01T05:59:28.500Z,1428.00
2018-05-01T06:00:28.476Z,1404.00
2018-05-01T06:01:28.453Z,1404.00
2018-05-01T06:02:28.429Z,1432.00
2018-05-01T06:03:28.406Z,1476.00
2018-05-01T06:04:28.383Z,1504.00
2018-05-01T06:05:28.359Z,1476.00
2018-05-01T06:06:28.336Z,1408.00
2018-05-01T06:07:28.317Z,1324.00
2018-05-01T06:08:28.293Z,1264.00
2018-05-01T06:09:28.266Z,1248.00
2018-05-01T06:10:28.242Z,1280.00
2018-05-01T06:11:28.219Z,1344.00
2018-05-01T06:12:28.950Z,1400.00
2018-05-01T06:13:28.237Z,1416.00
2018-05-01T06:14:28.150Z,1384.00
2018-05-01T06:15:28.125Z,1332.00
2018-05-01T06:16:28.101Z,1300.00
2018-05-01T06:17:28.078Z,1296.00
2018-05-01T06:18:28.056Z,1324.00
2018-05-01T06:19:28.036Z,1352.00
2018-05-01T06:20:28.008Z,1368.00
2018-05-01T06:21:27.984Z,1368.00
2018-05-01T06:22:27.962Z,1332.00
2018-05-01T06:23:34.696Z,1276.00
2018-05-01T06:24:27.914Z,1236.00
2018-05-01T06:25:27.891Z,1232.00
2018-05-01T06:26:27.867Z,1256.00
2018-05-01T06:27:27.843Z,1272.00
2018-05-01T06:28:27.820Z,1284.00
2018-05-01T06:29:27.797Z,1300.00
2018-05-01T06:30:27.772Z,1312.00
2018-05-01T06:31:27.751Z,1328.00
2018-05-01T06:32:27.727Z,1336.00
2018-05-01T06:33:27.702Z,1336.00
2018-05-01T06:34:27.680Z,1320.00
2018-05-01T06:35:27.657Z,1304.00
2018-05-01T06:36:27.631Z,1304.00
2018-05-01T06:37:27.647Z,1320.00
2018-05-01T06:38:27.584Z,1340.00
2018-05-01T06:39:27.561Z,1356.00
2018-05-01T06:40:27.538Z,1368.00
2018-05-01T06:41:27.513Z,1384.00
2018-05-01T06:42:27.490Z,1408.00
2018-05-01T06:43:27.468Z,1436.00
2018-05-01T06:44:27.444Z,1468.00
2018-05-01T06:45:30.422Z,1500.00
2018-05-01T06:46:27.397Z,1520.00
2018-05-01T06:47:27.373Z,1528.00
2018-05-01T06:48:27.350Z,1536.00
2018-05-01T06:49:27.326Z,1528.00
2018-05-01T06:50:27.304Z,1520.00
2018-05-01T06:51:27.279Z,1536.00
2018-05-01T06:52:27.256Z,1576.00
2018-05-01T06:53:27.233Z,1636.00
2018-05-01T06:54:27.211Z,1700.00
2018-05-01T06:55:27.187Z,1752.00
2018-05-01T06:56:27.163Z,1796.00
2018-05-01T06:57:27.143Z,1804.00
2018-05-01T06:58:27.116Z,1788.00
2018-05-01T06:59:27.096Z,1784.00
2018-05-01T07:00:27.072Z,1796.00
2018-05-01T07:01:27.046Z,1820.00
2018-05-01T07:02:29.276Z,1852.00
2018-05-01T07:03:27.000Z,1888.00
2018-05-01T07:04:27.149Z,1920.00
2018-05-01T07:05:27.003Z,1940.00
2018-05-01T07:06:26.929Z,1928.00
2018-05-01T07:07:26.908Z,1956.00
2018-05-01T07:08:26.890Z,2000.00
2018-05-01T07:09:26.860Z,2000.00
2018-05-01T07:10:26.837Z,1960.00
2018-05-01T07:11:26.813Z,1892.00
2018-05-01T07:12:26.791Z,1824.00
2018-05-01T07:13:26.766Z,1768.00
2018-05-01T07:14:26.744Z,1756.00
2018-05-01T07:15:26.724Z,1804.00
2018-05-01T07:16:26.698Z,1888.00
2018-05-01T07:17:26.674Z,1976.00
2018-05-01T07:18:26.652Z,2028.00
2018-05-01T07:19:26.627Z,2056.00
2018-05-01T07:20:26.604Z,2076.00
2018-05-01T07:21:26.582Z,2080.00
2018-05-01T07:22:26.559Z,2056.00
2018-05-01T07:23:26.534Z,2032.00
2018-05-01T07:24:28.763Z,2032.00
2018-05-01T07:25:26.487Z,2056.00
2018-05-01T07:26:26.466Z,2100.00
2018-05-01T07:27:26.484Z,2152.00
2018-05-01T07:28:26.485Z,2184.00
2018-05-01T07:29:26.395Z,2212.00
2018-05-01T07:30:26.371Z,2216.00
2018-05-01T07:31:26.349Z,2212.00
2018-05-01T07:32:26.324Z,2192.00
2018-05-01T07:33:26.301Z,2172.00
2018-05-01T07:34:26.279Z,2168.00
2018-05-01T07:35:26.255Z,2176.00
2018-05-01T07:36:26.231Z,2192.00
2018-05-01T07:37:26.207Z,2212.00
2018-05-01T07:38:26.185Z,2240.00
2018-05-01T07:39:26.162Z,2280.00
2018-05-01T07:40:26.137Z,2312.00
2018-05-01T07:41:26.190Z,2320.00
2018-05-01T07:42:26.092Z,2276.00
2018-05-01T07:43:26.067Z,2216.00
2018-05-01T07:44:26.043Z,2168.00
2018-05-01T07:45:26.020Z,2152.00
2018-05-01T07:46:25.997Z,2144.00
2018-05-01T07:47:25.974Z,2152.00
2018-05-01T07:48:25.950Z,2192.00
2018-05-01T07:49:25.927Z,2216.00
2018-05-01T07:50:25.905Z,2224.00
2018-05-01T07:51:25.882Z,2196.00
2018-05-01T07:52:25.862Z,2156.00
2018-05-01T07:53:25.835Z,2124.00
2018-05-01T07:54:25.812Z,2120.00
2018-05-01T07:55:25.863Z,2116.00
2018-05-01T07:56:25.763Z,2100.00
2018-05-01T07:57:25.742Z,2052.00
2018-05-01T07:58:25.718Z,2000.00
2018-05-01T07:59:25.696Z,1948.00
2018-05-01T08:00:25.682Z,1960.00
2018-05-01T08:01:25.648Z,2024.00
2018-05-01T08:02:25.624Z,2100.00
2018-05-01T08:03:25.601Z,2156.00
2018-05-01T08:04:25.577Z,2180.00
2018-05-01T08:05:25.556Z,2188.00
2018-05-01T08:06:25.531Z,2192.00
2018-05-01T08:07:25.508Z,2208.00
2018-05-01T08:08:25.484Z,2244.00
2018-05-01T08:09:25.462Z,2252.00
2018-05-01T08:10:25.445Z,2248.00
2018-05-01T08:11:25.419Z,2220.00
2018-05-01T08:12:26.140Z,2316.00
2018-05-01T08:13:25.368Z,2508.00
2018-05-01T08:14:25.347Z,2540.00
2018-05-01T08:15:25.321Z,2616.00
2018-05-01T08:16:25.296Z,2684.00
2018-05-01T08:17:25.272Z,2784.00
2018-05-01T08:18:25.251Z,2936.00
2018-05-01T08:19:25.250Z,2960.00
2018-05-01T08:20:25.201Z,2892.00
2018-05-01T08:21:25.178Z,2768.00
2018-05-01T08:22:25.159Z,2656.00
2018-05-01T08:23:25.133Z,2612.00
2018-05-01T08:24:25.198Z,2524.00
2018-05-01T08:25:25.086Z,2600.00
2018-05-01T08:26:25.063Z,2564.00
2018-05-01T08:27:25.040Z,2552.00
2018-05-01T08:28:25.019Z,2872.00
2018-05-01T08:29:24.991Z,3064.00
2018-05-01T08:30:24.970Z,3164.00
2018-05-01T08:31:24.946Z,3164.00
2018-05-01T08:32:24.920Z,3176.00
2018-05-01T08:33:24.898Z,3224.00
2018-05-01T08:34:24.874Z,3236.00
2018-05-01T08:35:24.851Z,3192.00
2018-05-01T08:36:24.828Z,3180.00
2018-05-01T08:37:24.805Z,3212.00
2018-05-01T08:38:24.782Z,3252.00
2018-05-01T08:39:24.766Z,3276.00
2018-05-01T08:40:24.735Z,3328.00
2018-05-01T08:41:24.710Z,3304.00
2018-05-01T08:42:24.688Z,3140.00
2018-05-01T08:43:24.664Z,2920.00
2018-05-01T08:44:27.643Z,2724.00
2018-05-01T08:45:24.673Z,2564.00
2018-05-01T08:46:24.594Z,2436.00
2018-05-01T08:47:24.575Z,2472.00
2018-05-01T08:48:24.548Z,2652.00
2018-05-01T08:49:24.523Z,2696.00
2018-05-01T08:50:24.501Z,2628.00
2018-05-01T08:51:24.478Z,2696.00
2018-05-01T08:52:24.457Z,2768.00
2018-05-01T08:53:24.429Z,2820.00
2018-05-01T08:54:24.407Z,2888.00
2018-05-01T08:55:24.383Z,3116.00
2018-05-01T08:56:24.360Z,3184.00
2018-05-01T08:57:24.357Z,3288.00
2018-05-01T08:58:24.313Z,3304.00
2018-05-01T08:59:24.291Z,3328.00
2018-05-01T09:00:24.268Z,3496.00
2018-05-01T09:01:24.243Z,3668.00
2018-05-01T09:02:24.223Z,3900.00
2018-05-01T09:03:24.197Z,4188.00
2018-05-01T09:04:24.177Z,4452.00
2018-05-01T09:05:24.153Z,4556.00
2018-05-01T09:06:24.132Z,4608.00
2018-05-01T09:07:24.104Z,4676.00
2018-05-01T09:08:24.080Z,4788.00
2018-05-01T09:09:24.143Z,4908.00
2018-05-01T09:10:24.036Z,4956.00
2018-05-01T09:11:24.012Z,4968.00
2018-05-01T09:12:23.989Z,5084.00
2018-05-01T09:13:23.966Z,5356.00
2018-05-01T09:14:23.942Z,5792.00
2018-05-01T09:15:23.921Z,6292.00
2018-05-01T09:16:23.896Z,6720.00
2018-05-01T09:17:23.875Z,6952.00
2018-05-01T09:18:24.231Z,6972.00
2018-05-01T09:19:23.830Z,6908.00
2018-05-01T09:20:23.807Z,6868.00
2018-05-01T09:21:23.783Z,6936.00
2018-05-01T09:22:23.760Z,7068.00
2018-05-01T09:23:23.739Z,7180.00
2018-05-01T09:24:23.715Z,7284.00
2018-05-01T09:25:23.692Z,7428.00
2018-05-01T09:26:23.678Z,7688.00
2018-05-01T09:27:23.648Z,7944.00
2018-05-01T09:28:23.628Z,7996.00
2018-05-01T09:29:23.602Z,7872.00
2018-05-01T09:30:23.579Z,8028.00
2018-05-01T09:31:23.557Z,8380.00
2018-05-01T09:32:23.533Z,8816.00
2018-05-01T09:33:23.511Z,9164.00
2018-05-01T09:34:24.241Z,9356.00
2018-05-01T09:35:23.481Z,9344.00
2018-05-01T09:36:23.455Z,9096.00
2018-05-01T09:37:23.422Z,8708.00
2018-05-01T09:38:23.401Z,8304.00
2018-05-01T09:39:23.379Z,8080.00
2018-05-01T09:40:23.356Z,8080.00
2018-05-01T09:41:23.334Z,8124.00
2018-05-01T09:42:23.311Z,8028.00
2018-05-01T09:43:23.291Z,7948.00
2018-05-01T09:44:23.269Z,7928.00
2018-05-01T09:45:23.245Z,8068.00
2018-05-01T09:46:23.225Z,8324.00
2018-05-01T09:47:23.233Z,8544.00
2018-05-01T09:48:23.215Z,8652.00
2018-05-01T09:49:23.159Z,8648.00
2018-05-01T09:50:23.138Z,8716.00
2018-05-01T09:51:23.118Z,8968.00
2018-05-01T09:52:23.093Z,9364.00
2018-05-01T09:53:23.145Z,9704.00
2018-05-01T09:54:23.050Z,9964.00
2018-05-01T09:55:23.029Z,9988.00
2018-05-01T09:56:23.008Z,9876.00
2018-05-01T09:57:22.986Z,9724.00
2018-05-01T09:58:22.965Z,9580.00
2018-05-01T09:59:22.944Z,9616.00
2018-05-01T10:00:22.928Z,9848.00
2018-05-01T10:01:22.901Z,9952.00
2018-05-01T10:02:22.881Z,9612.00
2018-05-01T10:03:22.860Z,9476.00
2018-05-01T10:04:22.837Z,9592.00
2018-05-01T10:05:22.823Z,9620.00
2018-05-01T10:06:22.796Z,9708.00
2018-05-01T10:07:22.774Z,9620.00
2018-05-01T10:08:22.754Z,9388.00
2018-05-01T10:09:22.734Z,9312.00
2018-05-01T10:10:22.712Z,9460.00
2018-05-01T10:11:22.693Z,9676.00
2018-05-01T10:12:22.687Z,9820.00
2018-05-01T10:13:22.652Z,9920.00
2018-05-01T10:14:22.630Z,10004.00
2018-05-01T10:15:22.609Z,9956.00
2018-05-01T10:16:22.589Z,9868.00
2018-05-01T10:17:22.569Z,9512.00
2018-05-01T10:18:22.548Z,9116.00
2018-05-01T10:19:22.527Z,9272.00
2018-05-01T10:20:22.506Z,9260.00
2018-05-01T10:21:22.486Z,9092.00
2018-05-01T10:22:22.465Z,8852.00
2018-05-01T10:23:22.445Z,8544.00
2018-05-01T10:24:22.426Z,8296.00
2018-05-01T10:25:22.404Z,8164.00
2018-05-01T10:26:22.384Z,8176.00
2018-05-01T10:27:22.365Z,8124.00
2018-05-01T10:28:22.344Z,8036.00
2018-05-01T10:29:22.324Z,7928.00
2018-05-01T10:30:22.304Z,7812.00
2018-05-01T10:31:22.283Z,7748.00
2018-05-01T10:32:22.263Z,7768.00
2018-05-01T10:33:22.241Z,7864.00
2018-05-01T10:34:22.221Z,7984.00
2018-05-01T10:35:22.200Z,8080.00
2018-05-01T10:36:22.179Z,8144.00
2018-05-01T10:37:22.159Z,8284.00
2018-05-01T10:38:22.141Z,8368.00
2018-05-01T10:39:22.118Z,8444.00
2018-05-01T10:40:22.105Z,8508.00
2018-05-01T10:41:22.085Z,8464.00
2018-05-01T10:42:22.057Z,8336.00
2018-05-01T10:43:22.037Z,8128.00
2018-05-01T10:44:22.015Z,7880.00
2018-05-01T10:45:21.994Z,7628.00
2018-05-01T10:46:21.975Z,7528.00
2018-05-01T10:47:21.953Z,7600.00
2018-05-01T10:48:21.931Z,7644.00
2018-05-01T10:49:22.000Z,7628.00
2018-05-01T10:50:21.956Z,7688.00
2018-05-01T10:51:21.871Z,7836.00
2018-05-01T10:52:21.848Z,8020.00
2018-05-01T10:53:21.827Z,8104.00
2018-05-01T10:54:21.809Z,8016.00
2018-05-01T10:55:21.790Z,7820.00
2018-05-01T10:56:21.767Z,7816.00
2018-05-01T10:57:21.744Z,7968.00
2018-05-01T10:58:21.724Z,8264.00
2018-05-01T10:59:21.704Z,8528.00
2018-05-01T11:00:21.683Z,8740.00
2018-05-01T11:01:21.662Z,8992.00
2018-05-01T11:02:21.642Z,9272.00
2018-05-01T11:03:21.620Z,9568.00
2018-05-01T11:04:21.602Z,9720.00
2018-05-01T11:05:21.578Z,9700.00
2018-05-01T11:06:21.559Z,9608.00
2018-05-01T11:07:21.538Z,9540.00
2018-05-01T11:08:21.589Z,9564.00
2018-05-01T11:09:21.497Z,9536.00
2018-05-01T11:10:21.477Z,9376.00
2018-05-01T11:11:21.455Z,9144.00
2018-05-01T11:12:21.438Z,8940.00
2018-05-01T11:13:21.413Z,8828.00
2018-05-01T11:14:21.394Z,8780.00
2018-05-01T11:15:21.374Z,8780.00
2018-05-01T11:16:21.355Z,8804.00
2018-05-01T11:17:21.368Z,8768.00
2018-05-01T11:18:21.311Z,8652.00
2018-05-01T11:19:21.290Z,8460.00
2018-05-01T11:20:21.270Z,8356.00
2018-05-01T11:21:21.251Z,8256.00
2018-05-01T11:22:21.229Z,8256.00
2018-05-01T11:23:21.210Z,8240.00
2018-05-01T11:24:21.189Z,8312.00
2018-05-01T11:25:21.171Z,8472.00
2018-05-01T11:26:21.148Z,8776.00
2018-05-01T11:27:21.128Z,9152.00
2018-05-01T11:28:21.109Z,9424.00
2018-05-01T11:29:21.088Z,9524.00
2018-05-01T11:30:21.067Z,9500.00
2018-05-01T11:31:21.048Z,9380.00
2018-05-01T11:32:21.027Z,9272.00
2018-05-01T11:33:21.008Z,9236.00
2018-05-01T11:34:20.993Z,9248.00
2018-05-01T11:35:23.969Z,9276.00
2018-05-01T11:36:20.947Z,9340.00
2018-05-01T11:37:20.927Z,9468.00
2018-05-01T11:38:20.907Z,9648.00
2018-05-01T11:39:20.887Z,9920.00
2018-05-01T11:40:20.866Z,10332.00
2018-05-01T11:41:23.098Z,10568.00
2018-05-01T11:42:20.826Z,10572.00
2018-05-01T11:43:20.806Z,10552.00
2018-05-01T11:44:20.785Z,10440.00
2018-05-01T11:45:20.770Z,10348.00
2018-05-01T11:46:20.765Z,10332.00
2018-05-01T11:47:20.727Z,10448.00
2018-05-01T11:48:20.705Z,10496.00
2018-05-01T11:49:20.687Z,10500.00
2018-05-01T11:50:20.667Z,10204.00
2018-05-01T11:51:20.647Z,9932.00
2018-05-01T11:52:20.626Z,9912.00
2018-05-01T11:53:20.606Z,10032.00
2018-05-01T11:54:20.586Z,10004.00
2018-05-01T11:55:20.567Z,9972.00
2018-05-01T11:56:20.548Z,10052.00
2018-05-01T11:57:20.528Z,10064.00
2018-05-01T11:58:23.512Z,10092.00
2018-05-01T11:59:20.489Z,10052.00
2018-05-01T12:00:20.470Z,9900.00
2018-05-01T12:01:20.449Z,9952.00
2018-05-01T12:02:20.430Z,10160.00
2018-05-01T12:03:20.411Z,10268.00
2018-05-01T12:04:21.143Z,10312.00
2018-05-01T12:05:20.372Z,10412.00
2018-05-01T12:06:20.350Z,10332.00
2018-05-01T12:07:20.333Z,10168.00
2018-05-01T12:08:20.312Z,10056.00
2018-05-01T12:09:20.291Z,9920.00
2018-05-01T12:10:20.272Z,9736.00
2018-05-01T12:11:20.253Z,9544.00
2018-05-01T12:12:20.233Z,9508.00
2018-05-01T12:13:20.215Z,9736.00
2018-05-01T12:14:20.197Z,9916.00
2018-05-01T12:15:20.176Z,9940.00
2018-05-01T12:16:20.157Z,9856.00
2018-05-01T12:17:20.136Z,9932.00
2018-05-01T12:18:20.120Z,10328.00
2018-05-01T12:19:20.100Z,10864.00
2018-05-01T12:20:20.078Z,11232.00
2018-05-01T12:21:20.059Z,11596.00
2018-05-01T12:22:20.042Z,12032.00
2018-05-01T12:23:20.025Z,12696.00
2018-05-01T12:24:20.003Z,13956.00
2018-05-01T12:25:19.983Z,14660.00
2018-05-01T12:26:19.965Z,14868.00
2018-05-01T12:27:19.946Z,14536.00
2018-05-01T12:28:19.990Z,14020.00
2018-05-01T12:29:19.906Z,13704.00